Terminal Aerodrome Forecast
Issued by NWS Hastings, NE

Home | Current Version | Previous Version | Text Only | Print | Product List | Glossary On
Versions: 1 2 3 4 5 6 7 8 9 10 11 12 13 14
000
FTUS43 KGID 192337
TAFGRI
TAF
KGRI 192337Z 2000/2024 01012KT P6SM -SN OVC015
     FM201100 35013KT P6SM BKN025
     FM201300 34014G21KT P6SM BKN050
     FM202300 34011KT P6SM FEW200=

USA.gov is the U.S. government's official web portal to all federal, state and local government web resources and services.